Time;durP1;ratioP1;P1;durP2;ratioP2;P2;SDS_P1;SDS_P2;PMS_P1;PMS_P2;Temp;Humidity;BMP_temperature;BMP_pressure;BME280_temperature;BME280_humidity;BME280_pressure;Samples;Min_cycle;Max_cycle;Signal;HPM_P1;HPM_P2
2021/10/06 00:00:37;;;;;;;8.30;3.77;;;9.10;99.20;;;;;;4174752;28;20025;-62
2021/10/06 00:02:39;;;;;;;10.60;3.20;;;9.00;99.20;;;;;;4174015;28;20473;-62
2021/10/06 00:04:40;;;;;;;8.30;3.83;;;9.00;99.20;;;;;;4174434;28;20380;-61
2021/10/06 00:06:41;;;;;;;6.90;3.37;;;9.00;99.10;;;;;;4157849;28;20425;-63
2021/10/06 00:08:44;;;;;;;10.63;3.87;;;9.00;99.00;;;;;;4158235;28;20034;-62
2021/10/06 00:10:45;;;;;;;8.37;3.47;;;9.10;99.00;;;;;;4157159;28;20380;-63
2021/10/06 00:12:46;;;;;;;7.83;3.33;;;9.10;99.00;;;;;;4158313;28;20150;-62
2021/10/06 00:14:48;;;;;;;5.20;3.70;;;9.10;98.90;;;;;;4172001;28;20029;-63
2021/10/06 00:16:51;;;;;;;8.77;3.43;;;9.00;98.80;;;;;;4172755;28;20046;-63
2021/10/06 00:18:53;;;;;;;8.17;3.53;;;9.10;98.80;;;;;;4173329;28;20017;-62
2021/10/06 00:20:54;;;;;;;10.97;4.13;;;9.10;98.60;;;;;;4173864;28;20079;-62
2021/10/06 00:22:55;;;;;;;4.97;3.47;;;9.10;98.50;;;;;;4173876;28;20083;-62
2021/10/06 00:24:56;;;;;;;5.13;3.10;;;9.10;98.50;;;;;;4173410;28;20060;-63
2021/10/06 00:26:57;;;;;;;8.07;3.33;;;9.10;98.40;;;;;;4174303;28;20032;-63
2021/10/06 00:28:59;;;;;;;7.63;3.13;;;9.20;98.30;;;;;;4173467;28;20087;-62
2021/10/06 00:31:00;;;;;;;6.27;3.40;;;9.20;98.10;;;;;;4172571;28;20547;-62
2021/10/06 00:33:01;;;;;;;7.37;3.20;;;9.20;98.00;;;;;;4171812;28;20049;-62
2021/10/06 00:35:02;;;;;;;7.37;3.27;;;9.20;98.00;;;;;;4174190;28;20492;-62
2021/10/06 00:37:04;;;;;;;6.73;2.87;;;9.20;97.90;;;;;;4172726;28;20029;-62
2021/10/06 00:39:05;;;;;;;9.30;3.13;;;9.20;98.00;;;;;;4173848;28;20098;-62
2021/10/06 00:41:06;;;;;;;7.97;3.03;;;9.10;98.00;;;;;;4172981;28;20063;-62
2021/10/06 00:43:07;;;;;;;7.07;3.40;;;9.20;98.00;;;;;;4173834;28;20071;-62
2021/10/06 00:45:09;;;;;;;11.17;3.60;;;9.20;98.00;;;;;;4171535;28;20122;-63
2021/10/06 00:47:12;;;;;;;7.10;3.20;;;9.10;97.90;;;;;;4173729;28;20095;-62
2021/10/06 00:49:14;;;;;;;16.57;3.00;;;9.10;97.90;;;;;;4173349;28;20032;-62
2021/10/06 00:51:16;;;;;;;10.70;3.07;;;9.10;98.00;;;;;;4173268;28;20103;-61
2021/10/06 00:53:17;;;;;;;9.67;3.13;;;9.10;97.90;;;;;;4172962;28;20037;-62
2021/10/06 00:55:18;;;;;;;9.93;3.20;;;9.00;98.00;;;;;;4171287;28;20049;-62
2021/10/06 00:57:19;;;;;;;6.93;3.37;;;9.00;98.00;;;;;;4173671;28;20025;-62
2021/10/06 00:59:21;;;;;;;6.93;3.93;;;9.10;98.00;;;;;;4172944;28;20869;-64
2021/10/06 01:01:22;;;;;;;7.10;3.30;;;9.00;98.30;;;;;;4174773;28;20075;-62
2021/10/06 01:03:23;;;;;;;11.23;3.20;;;8.90;98.00;;;;;;4172827;28;20397;-62
2021/10/06 01:05:25;;;;;;;5.80;3.27;;;9.00;98.10;;;;;;4173867;28;20098;-62
2021/10/06 01:07:26;;;;;;;14.47;3.47;;;8.90;98.10;;;;;;4170877;28;20051;-62
2021/10/06 01:09:29;;;;;;;7.23;3.03;;;8.90;98.10;;;;;;4174315;28;20042;-63
2021/10/06 01:11:32;;;;;;;5.70;2.90;;;8.90;98.10;;;;;;4172546;28;20037;-62
2021/10/06 01:13:33;;;;;;;6.93;4.07;;;8.90;98.10;;;;;;4174254;28;20056;-62
2021/10/06 01:15:35;;;;;;;5.10;3.13;;;8.90;98.10;;;;;;4172247;28;20063;-63
2021/10/06 01:17:36;;;;;;;7.40;3.53;;;8.90;98.00;;;;;;4172868;28;20083;-62
2021/10/06 01:19:37;;;;;;;4.97;3.80;;;8.90;98.10;;;;;;4166143;28;20042;-62
2021/10/06 01:21:39;;;;;;;6.27;3.80;;;8.90;98.20;;;;;;4156780;28;20389;-62
2021/10/06 01:23:40;;;;;;;6.53;3.33;;;8.90;98.20;;;;;;4157229;28;20500;-63
2021/10/06 01:25:41;;;;;;;10.60;3.57;;;8.80;98.20;;;;;;4156370;28;20041;-61
2021/10/06 01:27:44;;;;;;;7.73;3.93;;;8.80;98.20;;;;;;4157333;28;20045;-62
2021/10/06 01:29:45;;;;;;;8.03;3.20;;;8.80;98.30;;;;;;4156035;28;20037;-62
2021/10/06 01:31:48;;;;;;;8.40;3.57;;;8.70;98.30;;;;;;4158188;28;20091;-62
2021/10/06 01:33:49;;;;;;;12.13;3.43;;;8.70;98.30;;;;;;4156006;28;20390;-61
2021/10/06 01:35:51;;;;;;;4.33;3.10;;;8.80;98.30;;;;;;4156949;28;20103;-62
2021/10/06 01:37:53;;;;;;;8.17;3.73;;;8.70;98.30;;;;;;4155805;28;20095;-62
2021/10/06 01:39:54;;;;;;;6.50;3.33;;;8.70;98.40;;;;;;4157335;28;20030;-62
2021/10/06 01:41:55;;;;;;;11.80;3.43;;;8.80;98.30;;;;;;4155943;28;20037;-63
2021/10/06 01:43:56;;;;;;;9.17;3.50;;;8.70;98.30;;;;;;4166113;28;20025;-63
2021/10/06 01:45:58;;;;;;;8.67;3.23;;;8.70;98.40;;;;;;4172280;28;20087;-62
2021/10/06 01:48:07;;;;;;;7.33;3.23;;;8.70;98.40;;;;;;4173691;28;20091;-62
2021/10/06 01:50:08;;;;;;;8.00;3.87;;;8.70;98.40;;;;;;4172341;28;20029;-62
2021/10/06 01:52:11;;;;;;;6.30;3.77;;;8.70;98.40;;;;;;4173556;28;20033;-62
2021/10/06 01:54:12;;;;;;;4.77;3.17;;;8.70;98.40;;;;;;4160858;28;20049;-62
2021/10/06 01:56:13;;;;;;;11.83;3.40;;;8.70;98.40;;;;;;4156455;28;20099;-62
2021/10/06 01:58:18;;;;;;;7.53;3.70;;;8.70;98.40;;;;;;4156677;28;20087;-63
2021/10/06 02:00:19;;;;;;;8.93;3.53;;;8.70;98.40;;;;;;4158107;28;20037;-62
2021/10/06 02:02:20;;;;;;;10.57;3.73;;;8.70;98.40;;;;;;4173589;28;20098;-62
2021/10/06 02:04:22;;;;;;;9.00;3.37;;;8.60;98.60;;;;;;4171581;28;20679;-63
2021/10/06 02:06:23;;;;;;;8.93;3.77;;;8.50;98.70;;;;;;4173205;28;20037;-62
2021/10/06 02:08:24;;;;;;;8.87;4.20;;;8.50;98.80;;;;;;4172095;28;20033;-62
2021/10/06 02:10:25;;;;;;;7.23;4.70;;;8.40;98.90;;;;;;4175374;28;20036;-62
2021/10/06 02:12:26;;;;;;;10.20;3.70;;;8.40;99.00;;;;;;4174825;28;20457;-63
2021/10/06 02:14:27;;;;;;;9.83;3.87;;;8.30;99.00;;;;;;4159781;28;20041;-62
2021/10/06 02:16:29;;;;;;;16.37;4.07;;;8.30;99.10;;;;;;4158629;28;20144;-62
2021/10/06 02:18:30;;;;;;;6.47;3.50;;;8.20;99.20;;;;;;4160201;28;20083;-62
2021/10/06 02:20:32;;;;;;;9.20;3.50;;;8.20;99.40;;;;;;4161970;28;20087;-63
2021/10/06 02:22:33;;;;;;;8.37;3.67;;;8.20;99.50;;;;;;4177250;28;20094;-62
2021/10/06 02:24:34;;;;;;;5.67;3.47;;;8.10;99.70;;;;;;4174897;28;20084;-63
2021/10/06 02:26:35;;;;;;;5.37;3.40;;;8.10;99.80;;;;;;4174231;28;20029;-63
2021/10/06 02:28:36;;;;;;;5.63;3.27;;;8.10;99.80;;;;;;4175450;28;20045;-62
2021/10/06 02:30:37;;;;;;;12.87;3.60;;;8.10;99.80;;;;;;4171404;28;20087;-62
2021/10/06 02:32:39;;;;;;;16.17;3.87;;;8.10;99.90;;;;;;4159174;28;20041;-62
2021/10/06 02:34:40;;;;;;;7.67;3.13;;;8.00;99.90;;;;;;4158262;28;20656;-63
2021/10/06 02:36:41;;;;;;;6.43;3.33;;;8.00;99.90;;;;;;4159691;28;20099;-62
2021/10/06 02:38:42;;;;;;;8.37;3.80;;;8.00;99.90;;;;;;4159281;28;20375;-63
2021/10/06 02:40:43;;;;;;;7.10;4.03;;;8.00;99.90;;;;;;4159426;28;20056;-62
2021/10/06 02:42:47;;;;;;;11.07;4.20;;;7.90;99.90;;;;;;4158213;28;20041;-62
2021/10/06 02:44:48;;;;;;;11.03;4.63;;;7.90;99.90;;;;;;4159735;28;20042;-62
2021/10/06 02:46:49;;;;;;;6.93;3.53;;;7.90;99.90;;;;;;4158233;28;20532;-62
2021/10/06 02:48:50;;;;;;;8.47;4.30;;;7.90;99.90;;;;;;4159541;28;20075;-62
2021/10/06 02:50:52;;;;;;;10.73;3.87;;;7.90;99.90;;;;;;4170322;28;20024;-62
2021/10/06 02:52:53;;;;;;;5.23;3.43;;;7.90;99.90;;;;;;4175662;28;20029;-62
2021/10/06 02:54:55;;;;;;;5.93;3.93;;;7.90;99.90;;;;;;4174272;28;20048;-62
2021/10/06 02:57:01;;;;;;;4.87;3.30;;;7.90;99.90;;;;;;4174643;28;20090;-62
2021/10/06 02:59:02;;;;;;;11.13;4.23;;;7.90;99.80;;;;;;4174908;28;20433;-62
2021/10/06 03:01:03;;;;;;;10.47;3.97;;;7.90;99.80;;;;;;4175198;28;20036;-61
2021/10/06 03:03:04;;;;;;;8.40;3.53;;;8.00;99.70;;;;;;4173840;28;20079;-62
2021/10/06 03:05:07;;;;;;;8.10;3.50;;;8.00;99.60;;;;;;4161122;28;20565;-62
2021/10/06 03:07:08;;;;;;;7.20;3.67;;;8.00;99.50;;;;;;4158956;28;20033;-62
2021/10/06 03:09:11;;;;;;;7.27;3.60;;;8.10;99.40;;;;;;4158106;28;20499;-63
2021/10/06 03:11:12;;;;;;;5.30;2.90;;;8.10;99.30;;;;;;4159240;28;20391;-61
2021/10/06 03:13:13;;;;;;;7.40;3.50;;;8.10;99.20;;;;;;4157208;28;20375;-62
2021/10/06 03:15:14;;;;;;;7.07;3.67;;;8.00;99.30;;;;;;4170413;28;20021;-62
2021/10/06 03:17:15;;;;;;;10.33;3.77;;;8.00;99.50;;;;;;4172337;28;20795;-61
2021/10/06 03:19:16;;;;;;;8.47;3.97;;;7.90;99.70;;;;;;4175339;28;20095;-62
2021/10/06 03:21:18;;;;;;;7.33;2.97;;;7.80;99.90;;;;;;4173563;28;20578;-61
2021/10/06 03:23:20;;;;;;;4.83;3.10;;;7.70;99.90;;;;;;4175695;28;20094;-62
2021/10/06 03:25:21;;;;;;;8.10;3.80;;;7.60;99.90;;;;;;4173639;28;20037;-62
2021/10/06 03:27:24;;;;;;;8.17;3.73;;;7.60;99.90;;;;;;4175044;28;20048;-62
2021/10/06 03:29:25;;;;;;;14.63;3.90;;;7.50;99.90;;;;;;4173913;28;20130;-62
2021/10/06 03:31:26;;;;;;;9.07;3.40;;;7.50;99.90;;;;;;4170998;28;20044;-62
2021/10/06 03:33:27;;;;;;;7.37;3.33;;;7.50;99.90;;;;;;4158870;28;20057;-62
2021/10/06 03:35:29;;;;;;;7.90;3.03;;;7.40;99.90;;;;;;4174563;28;20911;-64
2021/10/06 03:37:30;;;;;;;7.60;3.60;;;7.30;99.90;;;;;;4174452;28;20033;-62
2021/10/06 03:39:31;;;;;;;6.40;3.20;;;7.30;99.90;;;;;;4173887;28;20885;-62
2021/10/06 03:41:32;;;;;;;5.43;3.37;;;7.30;99.90;;;;;;4174911;28;20029;-62
2021/10/06 03:43:33;;;;;;;8.73;3.53;;;7.20;99.90;;;;;;4173456;28;20029;-62
2021/10/06 03:45:35;;;;;;;14.63;4.07;;;7.20;99.90;;;;;;4175209;28;20083;-63
2021/10/06 03:47:36;;;;;;;7.90;3.93;;;7.20;99.90;;;;;;4173628;28;20126;-62
2021/10/06 03:49:38;;;;;;;7.27;3.40;;;7.10;99.90;;;;;;4174555;28;20059;-62
2021/10/06 03:51:39;;;;;;;7.90;3.80;;;7.10;99.90;;;;;;4171496;28;20475;-62
2021/10/06 03:53:40;;;;;;;7.00;3.80;;;7.10;99.90;;;;;;4174971;28;20033;-62
2021/10/06 03:55:42;;;;;;;13.13;4.30;;;7.10;99.90;;;;;;4172671;28;20493;-62
2021/10/06 03:57:43;;;;;;;9.57;3.70;;;7.10;99.90;;;;;;4174074;28;20029;-63
2021/10/06 03:59:44;;;;;;;12.37;3.80;;;7.10;99.90;;;;;;4173307;28;20039;-62
2021/10/06 04:01:46;;;;;;;9.23;3.90;;;7.10;99.90;;;;;;4171758;28;20037;-62
2021/10/06 04:03:47;;;;;;;11.93;3.90;;;7.10;99.90;;;;;;4173781;28;20432;-62
2021/10/06 04:05:48;;;;;;;9.50;3.77;;;7.10;99.90;;;;;;4173447;28;20028;-63
2021/10/06 04:07:49;;;;;;;6.77;3.67;;;7.20;99.90;;;;;;4175910;28;20101;-64
2021/10/06 04:09:50;;;;;;;9.53;4.30;;;7.20;99.90;;;;;;4167692;28;20033;-62
2021/10/06 04:11:51;;;;;;;10.97;3.83;;;7.10;99.90;;;;;;4162168;28;20107;-62
2021/10/06 04:13:53;;;;;;;12.13;4.23;;;7.10;99.90;;;;;;4157572;28;20098;-62
2021/10/06 04:15:54;;;;;;;6.63;3.93;;;7.10;99.90;;;;;;4160704;28;20138;-62
2021/10/06 04:17:55;;;;;;;11.97;4.77;;;7.10;99.90;;;;;;4158738;28;20063;-63
2021/10/06 04:19:56;;;;;;;9.47;3.90;;;7.10;99.90;;;;;;4162950;28;20045;-64
2021/10/06 04:21:57;;;;;;;9.27;3.87;;;7.20;99.90;;;;;;4160936;28;20084;-63
2021/10/06 04:23:59;;;;;;;10.03;3.27;;;7.20;99.90;;;;;;4169864;28;20033;-62
2021/10/06 04:26:00;;;;;;;8.80;3.70;;;7.30;99.90;;;;;;4161360;28;20013;-62
2021/10/06 04:28:01;;;;;;;9.27;3.10;;;7.30;99.90;;;;;;4150257;28;20029;-62
2021/10/06 04:30:07;;;;;;;6.57;3.00;;;7.40;99.60;;;;;;4168621;28;20097;-62
2021/10/06 04:32:08;;;;;;;9.03;3.00;;;7.50;99.40;;;;;;4171734;28;20138;-62
2021/10/06 04:34:09;;;;;;;4.27;2.77;;;7.60;99.10;;;;;;4169755;28;20045;-63
2021/10/06 04:36:10;;;;;;;5.67;3.27;;;7.60;98.90;;;;;;4169881;28;20036;-64
2021/10/06 04:38:12;;;;;;;5.33;2.73;;;7.70;98.90;;;;;;4172279;28;20592;-62
2021/10/06 04:40:13;;;;;;;10.10;3.37;;;7.70;98.90;;;;;;4171323;28;20067;-62
2021/10/06 04:42:14;;;;;;;14.13;4.70;;;7.60;98.90;;;;;;4172872;28;20048;-62
2021/10/06 04:44:16;;;;;;;5.10;3.03;;;7.60;98.90;;;;;;4171419;28;20436;-63
2021/10/06 04:46:18;;;;;;;9.80;3.37;;;7.60;98.80;;;;;;4172168;28;20190;-62
2021/10/06 04:48:23;;;;;;;6.27;3.60;;;7.80;98.50;;;;;;4172042;28;20049;-62
2021/10/06 04:50:27;;;;;;;7.47;2.87;;;8.00;98.10;;;;;;4169451;28;20041;-63
2021/10/06 04:52:28;;;;;;;9.73;3.23;;;8.20;97.60;;;;;;4158590;28;20902;-62
2021/10/06 04:54:29;;;;;;;7.00;3.10;;;8.50;97.50;;;;;;4160477;28;20102;-61
2021/10/06 04:56:30;;;;;;;7.30;3.37;;;8.70;97.20;;;;;;4174873;28;20145;-64
2021/10/06 04:58:31;;;;;;;12.03;3.70;;;8.80;96.90;;;;;;4173804;28;20064;-64
2021/10/06 05:00:32;;;;;;;8.27;3.17;;;9.00;96.50;;;;;;4172645;28;20424;-65
2021/10/06 05:02:33;;;;;;;6.27;3.00;;;9.10;96.40;;;;;;4173622;28;20095;-63
2021/10/06 05:04:35;;;;;;;4.83;3.20;;;9.10;96.30;;;;;;4172746;28;20033;-63
2021/10/06 05:06:36;;;;;;;12.83;2.87;;;9.20;96.20;;;;;;4173016;28;20075;-63
2021/10/06 05:08:37;;;;;;;6.80;3.20;;;9.30;96.30;;;;;;4172506;28;20440;-63
2021/10/06 05:10:39;;;;;;;4.53;2.90;;;9.40;96.30;;;;;;4172531;28;20107;-63
2021/10/06 05:12:40;;;;;;;12.40;2.87;;;9.50;96.10;;;;;;4172968;28;20466;-63
2021/10/06 05:14:41;;;;;;;7.33;3.27;;;9.60;96.20;;;;;;4172272;28;20136;-63
2021/10/06 05:16:42;;;;;;;8.27;3.20;;;9.70;96.10;;;;;;4173687;28;20507;-63
2021/10/06 05:18:43;;;;;;;9.53;4.10;;;9.80;95.80;;;;;;4171912;28;20091;-62
2021/10/06 05:20:44;;;;;;;11.20;3.87;;;10.10;95.80;;;;;;4173066;28;20041;-63
2021/10/06 05:22:45;;;;;;;13.27;4.03;;;10.20;95.50;;;;;;4170182;28;20099;-62
2021/10/06 05:24:47;;;;;;;7.57;3.00;;;10.30;95.30;;;;;;4169735;28;20045;-62
2021/10/06 05:26:48;;;;;;;8.97;3.70;;;10.40;95.10;;;;;;4172468;28;20030;-62
2021/10/06 05:28:54;;;;;;;7.17;3.53;;;10.50;95.20;;;;;;4173418;28;20398;-66
2021/10/06 05:30:55;;;;;;;9.97;3.47;;;10.60;95.30;;;;;;4172120;28;20041;-65
2021/10/06 05:32:56;;;;;;;6.40;3.20;;;10.60;94.80;;;;;;4172130;28;20481;-65
2021/10/06 05:34:58;;;;;;;8.83;3.23;;;10.50;94.70;;;;;;4172275;28;20154;-66
2021/10/06 05:36:59;;;;;;;6.53;3.23;;;10.50;94.50;;;;;;4172614;28;20041;-65
2021/10/06 05:39:00;;;;;;;4.80;3.20;;;10.70;94.50;;;;;;4172176;28;20103;-65
2021/10/06 05:41:01;;;;;;;7.63;3.40;;;10.70;93.90;;;;;;4171353;28;20479;-66
2021/10/06 05:43:03;;;;;;;9.33;3.77;;;10.70;94.10;;;;;;4172825;28;20055;-66
2021/10/06 05:45:05;;;;;;;12.10;3.90;;;10.70;94.00;;;;;;4173089;28;20121;-66
2021/10/06 05:47:06;;;;;;;10.77;3.70;;;10.80;94.10;;;;;;4176165;28;20368;-68
2021/10/06 05:49:07;;;;;;;5.17;2.47;;;10.80;94.00;;;;;;4175213;28;20033;-66
2021/10/06 05:51:08;;;;;;;4.80;3.30;;;10.90;94.00;;;;;;4176466;28;20358;-66
2021/10/06 05:53:10;;;;;;;8.10;3.20;;;10.90;94.00;;;;;;4175652;28;20029;-71
2021/10/06 05:55:11;;;;;;;5.73;2.93;;;10.90;93.70;;;;;;4176832;28;20053;-67
2021/10/06 05:57:12;;;;;;;7.20;3.03;;;10.90;93.60;;;;;;4174937;28;20890;-66
2021/10/06 05:59:14;;;;;;;5.50;3.10;;;10.90;93.90;;;;;;4175728;28;20041;-65
2021/10/06 06:01:16;;;;;;;4.80;2.97;;;11.00;93.80;;;;;;4175158;28;20473;-66
2021/10/06 06:03:17;;;;;;;7.13;2.77;;;11.10;93.80;;;;;;4175540;28;20033;-65
2021/10/06 06:05:19;;;;;;;7.27;3.20;;;11.10;93.70;;;;;;4171442;28;20110;-65
2021/10/06 06:07:20;;;;;;;14.00;2.60;;;11.00;93.80;;;;;;4170073;28;20048;-65
2021/10/06 06:09:22;;;;;;;6.80;3.80;;;11.30;93.60;;;;;;4173900;28;20556;-66
2021/10/06 06:11:25;;;;;;;8.60;3.93;;;11.40;93.50;;;;;;4171546;28;20028;-64
2021/10/06 06:13:26;;;;;;;8.97;4.00;;;11.60;93.40;;;;;;4172423;28;20025;-69
2021/10/06 06:15:27;;;;;;;15.60;4.17;;;11.50;93.20;;;;;;4174698;28;20029;-64
2021/10/06 06:17:29;;;;;;;8.77;4.03;;;11.70;93.00;;;;;;4175352;28;20037;-71
2021/10/06 06:19:30;;;;;;;7.03;3.20;;;11.70;92.90;;;;;;4174842;28;20465;-66
2021/10/06 06:21:31;;;;;;;8.33;3.07;;;11.70;92.80;;;;;;4175912;28;20134;-63
2021/10/06 06:23:32;;;;;;;7.97;3.30;;;11.80;92.50;;;;;;4174744;28;20086;-62
2021/10/06 06:25:33;;;;;;;5.03;3.03;;;11.80;92.40;;;;;;4176002;28;20040;-67
2021/10/06 06:27:35;;;;;;;9.47;2.60;;;11.70;92.00;;;;;;4174501;28;20083;-65
2021/10/06 06:29:37;;;;;;;17.57;2.90;;;11.80;92.00;;;;;;4175792;28;20071;-64
2021/10/06 06:31:38;;;;;;;8.97;2.50;;;11.80;91.90;;;;;;4174592;28;20095;-64
2021/10/06 06:33:40;;;;;;;6.77;2.23;;;11.80;91.80;;;;;;4175747;28;20041;-65
2021/10/06 06:35:41;;;;;;;6.53;2.47;;;11.80;91.70;;;;;;4175031;28;20091;-65
2021/10/06 06:37:42;;;;;;;4.73;2.40;;;11.90;91.80;;;;;;4174178;28;20079;-64
2021/10/06 06:39:43;;;;;;;5.43;2.60;;;12.00;91.70;;;;;;4175156;28;20481;-67
2021/10/06 06:41:45;;;;;;;7.07;2.57;;;12.20;91.60;;;;;;4175080;28;20102;-67
2021/10/06 06:43:46;;;;;;;10.37;3.20;;;12.30;91.60;;;;;;4175537;28;20045;-67
2021/10/06 06:45:47;;;;;;;5.53;2.67;;;12.10;91.40;;;;;;4174360;28;20443;-63
2021/10/06 06:47:48;;;;;;;8.20;2.63;;;12.00;91.60;;;;;;4174783;28;20489;-64
2021/10/06 06:49:49;;;;;;;6.60;2.90;;;11.90;91.70;;;;;;4174483;28;20111;-64
2021/10/06 06:51:50;;;;;;;10.47;2.80;;;11.80;91.90;;;;;;4175202;28;20397;-64
2021/10/06 06:53:52;;;;;;;9.30;3.13;;;11.80;92.00;;;;;;4174472;28;20642;-63
2021/10/06 06:55:58;;;;;;;6.60;2.93;;;11.90;91.90;;;;;;4175079;28;20057;-63
2021/10/06 06:57:59;;;;;;;10.50;2.50;;;12.10;91.80;;;;;;4174063;28;20091;-63
2021/10/06 07:00:00;;;;;;;4.33;2.53;;;12.00;91.80;;;;;;4175476;28;20037;-65
2021/10/06 07:02:01;;;;;;;4.80;3.13;;;12.00;91.70;;;;;;4173808;28;20083;-64
2021/10/06 07:04:03;;;;;;;9.17;2.53;;;12.20;91.80;;;;;;4174074;28;20087;-63
2021/10/06 07:06:04;;;;;;;15.57;3.43;;;12.30;91.70;;;;;;4173241;28;20086;-63
2021/10/06 07:08:05;;;;;;;4.53;2.17;;;12.40;91.50;;;;;;4175274;28;20078;-63
2021/10/06 07:10:07;;;;;;;5.20;2.50;;;12.50;91.40;;;;;;4174739;28;20473;-61
2021/10/06 07:12:08;;;;;;;3.40;2.40;;;12.60;91.50;;;;;;4174622;28;20033;-63
2021/10/06 07:14:09;;;;;;;4.03;2.40;;;12.80;91.50;;;;;;4174806;28;20512;-62
2021/10/06 07:16:10;;;;;;;10.00;3.17;;;12.80;91.30;;;;;;4174449;28;20083;-63
2021/10/06 07:18:11;;;;;;;5.23;2.30;;;12.80;91.10;;;;;;4174971;28;20037;-65
2021/10/06 07:20:12;;;;;;;7.87;2.50;;;12.70;91.20;;;;;;4174076;28;20488;-67
2021/10/06 07:22:15;;;;;;;5.13;2.43;;;12.60;91.20;;;;;;4175054;28;20029;-64
2021/10/06 07:24:17;;;;;;;7.47;2.57;;;12.60;91.20;;;;;;4174422;28;20036;-63
2021/10/06 07:26:18;;;;;;;8.20;2.10;;;12.70;91.30;;;;;;4175365;28;20075;-63
2021/10/06 07:28:19;;;;;;;7.00;2.20;;;12.70;91.10;;;;;;4173808;28;20082;-63
2021/10/06 07:30:20;;;;;;;9.90;2.03;;;12.80;91.10;;;;;;4175135;28;20074;-62
2021/10/06 07:32:21;;;;;;;7.90;2.13;;;12.80;91.00;;;;;;4173261;28;20036;-65
2021/10/06 07:34:23;;;;;;;2.90;1.77;;;12.80;91.10;;;;;;4175263;28;20400;-65
2021/10/06 07:36:25;;;;;;;4.20;2.10;;;12.90;91.20;;;;;;4173953;28;20055;-64
2021/10/06 07:38:26;;;;;;;7.30;2.17;;;13.00;91.00;;;;;;4175040;28;20477;-63
2021/10/06 07:40:27;;;;;;;9.63;3.23;;;13.20;90.90;;;;;;4173032;28;20321;-63
2021/10/06 07:42:28;;;;;;;7.20;2.03;;;13.40;90.60;;;;;;4174532;28;20086;-68
2021/10/06 07:44:30;;;;;;;10.10;2.70;;;13.40;90.00;;;;;;4173873;28;20023;-63
2021/10/06 07:46:31;;;;;;;6.43;2.07;;;13.40;90.00;;;;;;4173493;28;20114;-65
2021/10/06 07:48:32;;;;;;;7.20;2.23;;;13.40;90.00;;;;;;4173761;28;20024;-64
2021/10/06 07:50:33;;;;;;;5.03;2.13;;;13.50;90.10;;;;;;4173404;28;21240;-65
2021/10/06 07:52:34;;;;;;;6.97;2.30;;;13.50;89.90;;;;;;4174277;28;20025;-64
2021/10/06 07:54:35;;;;;;;6.30;2.17;;;13.50;90.10;;;;;;4173411;28;20044;-64
2021/10/06 07:56:37;;;;;;;5.17;2.20;;;13.60;90.00;;;;;;4174594;28;20032;-66
2021/10/06 07:58:38;;;;;;;5.07;1.93;;;13.60;89.80;;;;;;4173093;28;20475;-64
2021/10/06 08:00:39;;;;;;;5.23;2.30;;;13.70;89.70;;;;;;4174307;28;20086;-65
2021/10/06 08:02:40;;;;;;;3.93;2.50;;;13.70;89.50;;;;;;4172375;28;20037;-63
2021/10/06 08:04:41;;;;;;;6.00;2.10;;;13.80;89.40;;;;;;4174311;28;20033;-64
2021/10/06 08:06:42;;;;;;;6.70;2.60;;;13.80;89.50;;;;;;4173236;28;20085;-65
2021/10/06 08:08:44;;;;;;;7.80;2.47;;;14.00;90.10;;;;;;4190366;28;20063;-68
2021/10/06 08:10:45;;;;;;;12.70;3.10;;;14.10;89.70;;;;;;4189470;28;20086;-65
2021/10/06 08:12:46;;;;;;;6.70;2.47;;;14.30;89.70;;;;;;4188933;28;20070;-66
2021/10/06 08:14:47;;;;;;;5.50;2.00;;;14.20;88.40;;;;;;4174949;28;20053;-66
2021/10/06 08:16:48;;;;;;;6.83;2.07;;;14.20;88.40;;;;;;4173306;28;20075;-69
2021/10/06 08:18:49;;;;;;;4.20;2.33;;;14.30;88.60;;;;;;4173932;28;20162;-64
2021/10/06 08:20:54;;;;;;;6.30;2.13;;;14.30;88.30;;;;;;4173297;28;20474;-65
2021/10/06 08:22:55;;;;;;;5.53;2.33;;;14.20;88.20;;;;;;4174068;28;20445;-67
2021/10/06 08:24:56;;;;;;;4.50;2.43;;;14.20;89.20;;;;;;4173156;28;20029;-63
2021/10/06 08:26:57;;;;;;;4.57;2.60;;;14.30;88.30;;;;;;4174465;28;20919;-65
2021/10/06 08:28:59;;;;;;;5.13;2.23;;;14.20;88.60;;;;;;4173250;28;20037;-66
2021/10/06 08:31:00;;;;;;;5.87;2.13;;;14.20;87.80;;;;;;4174587;28;20099;-65
2021/10/06 08:33:01;;;;;;;2.77;1.93;;;14.30;87.60;;;;;;4172740;28;20075;-64
2021/10/06 08:35:03;;;;;;;9.77;2.87;;;14.30;87.10;;;;;;4169700;28;20048;-64
2021/10/06 08:37:04;;;;;;;6.23;2.10;;;14.30;87.40;;;;;;4171699;28;20656;-65
2021/10/06 08:39:08;;;;;;;5.43;1.90;;;14.40;88.10;;;;;;4173082;28;20028;-65
2021/10/06 08:41:09;;;;;;;8.53;2.87;;;14.60;87.90;;;;;;4175165;28;20024;-63
2021/10/06 08:43:11;;;;;;;2.63;1.97;;;14.60;87.90;;;;;;4173902;28;20082;-65
2021/10/06 08:45:12;;;;;;;8.13;2.27;;;14.70;88.20;;;;;;4172640;28;20931;-64
2021/10/06 08:47:14;;;;;;;8.37;2.70;;;14.80;88.30;;;;;;4174003;28;20091;-64
2021/10/06 08:49:16;;;;;;;9.87;2.60;;;14.80;88.20;;;;;;4178013;28;20432;-64
2021/10/06 08:51:17;;;;;;;9.20;2.63;;;14.90;88.30;;;;;;4172678;28;20041;-66
2021/10/06 08:53:18;;;;;;;8.60;2.53;;;14.90;87.30;;;;;;4171942;28;20485;-65
2021/10/06 08:55:27;;;;;;;5.03;2.10;;;14.90;86.90;;;;;;4177757;28;20066;-63
2021/10/06 08:57:29;;;;;;;3.27;1.80;;;14.90;87.10;;;;;;4184016;28;20029;-66
2021/10/06 08:59:30;;;;;;;5.57;2.33;;;14.90;87.10;;;;;;4172552;28;20036;-64
2021/10/06 09:01:31;;;;;;;5.93;2.43;;;14.90;86.80;;;;;;4174095;28;20107;-63
2021/10/06 09:03:34;;;;;;;4.40;2.30;;;15.00;87.30;;;;;;4168571;28;20045;-67
2021/10/06 09:05:35;;;;;;;8.13;2.27;;;15.00;86.60;;;;;;4157278;28;20053;-65
2021/10/06 09:07:56;;;;;;;4.23;2.20;;;14.80;86.90;;;;;;4171245;28;20041;-64
2021/10/06 09:10:14;;;;;;;3.83;2.00;;;14.80;88.10;;;;;;4174074;28;20029;-68
2021/10/06 09:12:17;;;;;;;6.20;2.23;;;14.90;87.50;;;;;;4172090;28;20025;-66
2021/10/06 09:14:19;;;;;;;8.57;2.43;;;15.00;87.60;;;;;;4173634;28;20099;-67
2021/10/06 09:16:24;;;;;;;7.13;2.07;;;14.90;87.20;;;;;;4172340;28;20036;-66
2021/10/06 09:18:27;;;;;;;4.87;1.83;;;14.80;87.80;;;;;;4174342;28;20132;-66
2021/10/06 09:20:36;;;;;;;6.17;2.07;;;14.90;88.20;;;;;;4174076;28;20033;-67
2021/10/06 09:22:40;;;;;;;8.60;2.33;;;14.90;87.30;;;;;;4176888;28;20114;-65
2021/10/06 09:24:53;;;;;;;13.03;2.40;;;15.00;87.60;;;;;;4160650;28;20107;-67
2021/10/06 09:27:05;;;;;;;5.00;2.27;;;15.10;87.50;;;;;;4160114;28;20446;-66
2021/10/06 09:29:20;;;;;;;5.20;2.33;;;15.30;86.70;;;;;;4159088;28;20033;-64
2021/10/06 09:31:26;;;;;;;5.57;2.00;;;15.20;86.30;;;;;;4160252;28;20049;-65
2021/10/06 09:33:43;;;;;;;6.20;2.10;;;15.30;86.80;;;;;;4158781;28;20461;-67
2021/10/06 09:35:44;;;;;;;17.20;2.90;;;15.40;86.90;;;;;;4159713;28;20080;-67
2021/10/06 09:37:47;;;;;;;4.80;1.63;;;15.50;85.90;;;;;;4172714;28;20094;-65
2021/10/06 09:39:52;;;;;;;6.97;2.27;;;15.50;86.20;;;;;;4170389;28;20049;-68
2021/10/06 09:41:53;;;;;;;2.97;1.87;;;15.60;86.50;;;;;;4170530;28;20091;-66
2021/10/06 09:44:20;;;;;;;3.87;1.57;;;15.60;86.20;;;;;;4167783;28;20049;-64
2021/10/06 09:46:21;;;;;;;5.10;2.17;;;15.60;86.00;;;;;;4168170;28;21925;-65
2021/10/06 09:48:34;;;;;;;6.73;2.10;;;15.50;85.20;;;;;;4160465;28;20095;-68
2021/10/06 09:50:48;;;;;;;4.93;1.97;;;15.30;85.40;;;;;;4169982;28;20086;-63
2021/10/06 09:52:50;;;;;;;7.80;2.23;;;15.40;85.60;;;;;;4172965;28;20041;-66
2021/10/06 09:55:06;;;;;;;4.50;2.03;;;15.40;86.00;;;;;;4173869;28;20061;-67
2021/10/06 09:57:07;;;;;;;8.33;2.47;;;15.60;86.20;;;;;;4168662;28;20100;-66
2021/10/06 09:59:13;;;;;;;3.30;2.00;;;15.70;86.10;;;;;;4175644;28;20044;-67
2021/10/06 10:01:15;;;;;;;10.97;2.50;;;15.60;84.70;;;;;;4165755;28;20325;-67
2021/10/06 10:03:16;;;;;;;6.97;2.10;;;15.60;85.10;;;;;;4166454;28;20045;-65
2021/10/06 10:05:17;;;;;;;10.13;2.10;;;15.50;85.30;;;;;;4159287;28;20107;-65
2021/10/06 10:07:20;;;;;;;7.80;2.27;;;15.50;85.50;;;;;;4190463;28;20093;-66
2021/10/06 10:09:22;;;;;;;5.00;2.13;;;15.40;85.50;;;;;;4162279;28;20045;-65
2021/10/06 10:11:23;;;;;;;11.03;2.60;;;15.50;84.80;;;;;;4159246;28;20045;-64
2021/10/06 10:13:24;;;;;;;4.67;2.17;;;15.50;84.50;;;;;;4163928;28;20025;-66
2021/10/06 10:15:26;;;;;;;5.43;1.90;;;15.60;84.80;;;;;;4174669;28;20048;-66
2021/10/06 10:17:27;;;;;;;3.57;2.03;;;15.60;84.10;;;;;;4165347;28;20053;-64
2021/10/06 10:19:29;;;;;;;6.77;2.17;;;15.60;84.30;;;;;;4159482;28;20033;-66
2021/10/06 10:21:32;;;;;;;3.83;2.20;;;15.70;83.60;;;;;;4158260;28;20033;-65
2021/10/06 10:23:33;;;;;;;7.40;2.13;;;15.70;83.40;;;;;;4159422;28;20096;-65
2021/10/06 10:25:44;;;;;;;3.93;2.40;;;15.70;83.00;;;;;;4158655;28;20029;-62
2021/10/06 10:28:04;;;;;;;;;;;15.80;82.80;;;;;;4166226;28;20782;-63
2021/10/06 10:30:05;;;;;;;2.40;1.87;;;15.80;82.80;;;;;;4183027;28;19912;-66
2021/10/06 10:32:12;;;;;;;3.37;2.30;;;15.90;83.60;;;;;;4172141;28;20074;-64
2021/10/06 10:34:13;;;;;;;7.55;1.77;;;16.00;82.90;;;;;;4176295;28;20493;-65
2021/10/06 10:36:39;;;;;;;9.87;2.17;;;16.00;82.50;;;;;;4175764;28;20041;-68
2021/10/06 10:38:40;;;;;;;5.50;1.92;;;16.00;82.40;;;;;;4162863;28;20037;-63